sensor_id;sensor_type;location;lat;lon;timestamp;temperature;humidity
65044;DHT22;51617;48.158;16.464;2022-10-17T00:02:09;14.80;98.90
65044;DHT22;51617;48.158;16.464;2022-10-17T00:04:35;14.90;99.40
65044;DHT22;51617;48.158;16.464;2022-10-17T00:07:01;14.90;99.40
65044;DHT22;51617;48.158;16.464;2022-10-17T00:09:26;14.90;99.00
65044;DHT22;51617;48.158;16.464;2022-10-17T00:11:52;14.80;98.80
65044;DHT22;51617;48.158;16.464;2022-10-17T00:14:17;14.70;99.20
65044;DHT22;51617;48.158;16.464;2022-10-17T00:16:43;16.40;99.50
65044;DHT22;51617;48.158;16.464;2022-10-17T00:19:08;14.70;98.80
65044;DHT22;51617;48.158;16.464;2022-10-17T00:21:34;14.50;98.40
65044;DHT22;51617;48.158;16.464;2022-10-17T00:23:59;14.40;98.50
65044;DHT22;51617;48.158;16.464;2022-10-17T00:26:25;14.40;99.10
65044;DHT22;51617;48.158;16.464;2022-10-17T00:28:52;14.40;99.20
65044;DHT22;51617;48.158;16.464;2022-10-17T00:31:18;14.40;99.10
65044;DHT22;51617;48.158;16.464;2022-10-17T00:33:45;14.50;99.20
65044;DHT22;51617;48.158;16.464;2022-10-17T00:36:17;14.40;98.60
65044;DHT22;51617;48.158;16.464;2022-10-17T00:38:44;14.30;98.90
65044;DHT22;51617;48.158;16.464;2022-10-17T00:41:10;14.10;98.50
65044;DHT22;51617;48.158;16.464;2022-10-17T00:43:53;14.20;99.10
65044;DHT22;51617;48.158;16.464;2022-10-17T00:46:19;14.20;99.20
65044;DHT22;51617;48.158;16.464;2022-10-17T00:48:45;14.20;99.40
65044;DHT22;51617;48.158;16.464;2022-10-17T00:51:13;14.30;99.10
65044;DHT22;51617;48.158;16.464;2022-10-17T00:53:38;14.10;98.90
65044;DHT22;51617;48.158;16.464;2022-10-17T00:56:04;14.00;99.30
65044;DHT22;51617;48.158;16.464;2022-10-17T00:58:30;14.10;99.40
65044;DHT22;51617;48.158;16.464;2022-10-17T01:00:55;14.10;99.60
65044;DHT22;51617;48.158;16.464;2022-10-17T01:03:21;14.00;99.60
65044;DHT22;51617;48.158;16.464;2022-10-17T01:05:47;14.00;99.50
65044;DHT22;51617;48.158;16.464;2022-10-17T01:08:12;14.00;99.50
65044;DHT22;51617;48.158;16.464;2022-10-17T01:13:24;13.90;99.00
65044;DHT22;51617;48.158;16.464;2022-10-17T01:16:09;13.70;98.90
65044;DHT22;51617;48.158;16.464;2022-10-17T01:23:53;13.30;99.70
65044;DHT22;51617;48.158;16.464;2022-10-17T01:26:29;13.30;99.60
65044;DHT22;51617;48.158;16.464;2022-10-17T01:31:31;13.30;99.90
65044;DHT22;51617;48.158;16.464;2022-10-17T01:34:00;13.50;99.90
65044;DHT22;51617;48.158;16.464;2022-10-17T01:41:41;13.40;99.80
65044;DHT22;51617;48.158;16.464;2022-10-17T01:44:10;13.50;99.80
65044;DHT22;51617;48.158;16.464;2022-10-17T01:46:37;13.40;99.40
65044;DHT22;51617;48.158;16.464;2022-10-17T01:49:05;13.40;99.20
65044;DHT22;51617;48.158;16.464;2022-10-17T01:51:50;13.20;99.10
65044;DHT22;51617;48.158;16.464;2022-10-17T01:56:45;13.00;99.60
65044;DHT22;51617;48.158;16.464;2022-10-17T01:59:22;12.90;99.50
65044;DHT22;51617;48.158;16.464;2022-10-17T02:01:49;13.00;99.90
65044;DHT22;51617;48.158;16.464;2022-10-17T02:04:15;13.00;99.80
65044;DHT22;51617;48.158;16.464;2022-10-17T02:06:41;13.00;99.90
65044;DHT22;51617;48.158;16.464;2022-10-17T02:09:23;12.90;99.90
65044;DHT22;51617;48.158;16.464;2022-10-17T02:30:02;13.40;99.90
65044;DHT22;51617;48.158;16.464;2022-10-17T02:34:55;13.60;99.90
65044;DHT22;51617;48.158;16.464;2022-10-17T02:37:24;13.70;99.90
65044;DHT22;51617;48.158;16.464;2022-10-17T02:39:51;13.80;99.90
65044;DHT22;51617;48.158;16.464;2022-10-17T02:42:18;13.90;99.90
65044;DHT22;51617;48.158;16.464;2022-10-17T02:44:45;14.00;99.90
65044;DHT22;51617;48.158;16.464;2022-10-17T02:47:13;14.00;99.90
65044;DHT22;51617;48.158;16.464;2022-10-17T02:49:40;14.10;99.90
65044;DHT22;51617;48.158;16.464;2022-10-17T02:52:13;14.00;99.90
65044;DHT22;51617;48.158;16.464;2022-10-17T02:54:53;14.10;99.90
65044;DHT22;51617;48.158;16.464;2022-10-17T02:57:23;14.10;99.90
65044;DHT22;51617;48.158;16.464;2022-10-17T02:59:51;14.00;99.90
65044;DHT22;51617;48.158;16.464;2022-10-17T03:02:17;14.00;99.90
65044;DHT22;51617;48.158;16.464;2022-10-17T03:04:44;13.90;99.90
65044;DHT22;51617;48.158;16.464;2022-10-17T03:07:09;14.00;99.90
65044;DHT22;51617;48.158;16.464;2022-10-17T03:09:35;14.00;99.90
65044;DHT22;51617;48.158;16.464;2022-10-17T03:12:00;14.00;99.90
65044;DHT22;51617;48.158;16.464;2022-10-17T03:14:26;14.00;99.90
65044;DHT22;51617;48.158;16.464;2022-10-17T03:16:51;14.10;99.90
65044;DHT22;51617;48.158;16.464;2022-10-17T03:19:17;14.10;99.90
65044;DHT22;51617;48.158;16.464;2022-10-17T03:21:42;14.10;99.90
65044;DHT22;51617;48.158;16.464;2022-10-17T03:24:08;14.20;99.90
65044;DHT22;51617;48.158;16.464;2022-10-17T03:26:33;14.20;99.90
65044;DHT22;51617;48.158;16.464;2022-10-17T03:28:59;14.20;99.90
65044;DHT22;51617;48.158;16.464;2022-10-17T03:31:24;14.20;99.90
65044;DHT22;51617;48.158;16.464;2022-10-17T03:33:50;14.30;99.90
65044;DHT22;51617;48.158;16.464;2022-10-17T03:36:16;14.20;99.90
65044;DHT22;51617;48.158;16.464;2022-10-17T03:38:42;14.20;99.90
65044;DHT22;51617;48.158;16.464;2022-10-17T03:41:08;14.20;99.90
65044;DHT22;51617;48.158;16.464;2022-10-17T03:43:34;14.20;99.90
65044;DHT22;51617;48.158;16.464;2022-10-17T03:45:59;14.30;99.90
65044;DHT22;51617;48.158;16.464;2022-10-17T03:48:25;14.30;99.90
65044;DHT22;51617;48.158;16.464;2022-10-17T03:50:51;14.30;99.90
65044;DHT22;51617;48.158;16.464;2022-10-17T03:53:16;14.20;99.90
65044;DHT22;51617;48.158;16.464;2022-10-17T03:55:42;14.20;99.90
65044;DHT22;51617;48.158;16.464;2022-10-17T03:58:07;14.20;99.90
65044;DHT22;51617;48.158;16.464;2022-10-17T04:00:36;14.10;99.90
65044;DHT22;51617;48.158;16.464;2022-10-17T04:03:01;14.20;99.90
65044;DHT22;51617;48.158;16.464;2022-10-17T04:05:27;14.20;99.90
65044;DHT22;51617;48.158;16.464;2022-10-17T04:07:52;14.20;99.90
65044;DHT22;51617;48.158;16.464;2022-10-17T04:10:18;14.20;99.90
65044;DHT22;51617;48.158;16.464;2022-10-17T04:12:43;14.30;99.90
65044;DHT22;51617;48.158;16.464;2022-10-17T04:15:09;14.20;99.90
65044;DHT22;51617;48.158;16.464;2022-10-17T04:17:35;14.30;99.90
65044;DHT22;51617;48.158;16.464;2022-10-17T04:20:00;14.20;99.90
65044;DHT22;51617;48.158;16.464;2022-10-17T04:22:26;14.20;99.90
65044;DHT22;51617;48.158;16.464;2022-10-17T04:24:51;14.30;99.90
65044;DHT22;51617;48.158;16.464;2022-10-17T04:27:17;14.20;99.90
65044;DHT22;51617;48.158;16.464;2022-10-17T04:29:42;14.20;99.90
65044;DHT22;51617;48.158;16.464;2022-10-17T04:32:08;14.30;99.90
65044;DHT22;51617;48.158;16.464;2022-10-17T04:34:34;14.30;99.90
65044;DHT22;51617;48.158;16.464;2022-10-17T04:36:59;14.30;99.90
65044;DHT22;51617;48.158;16.464;2022-10-17T04:39:25;14.20;99.90
65044;DHT22;51617;48.158;16.464;2022-10-17T04:41:50;14.20;99.90
65044;DHT22;51617;48.158;16.464;2022-10-17T04:44:16;14.20;99.90
65044;DHT22;51617;48.158;16.464;2022-10-17T04:46:41;14.20;99.90
65044;DHT22;51617;48.158;16.464;2022-10-17T04:49:07;14.10;99.90
65044;DHT22;51617;48.158;16.464;2022-10-17T04:51:33;14.00;99.90
65044;DHT22;51617;48.158;16.464;2022-10-17T04:53:58;14.10;99.90
65044;DHT22;51617;48.158;16.464;2022-10-17T04:56:24;14.10;99.90
65044;DHT22;51617;48.158;16.464;2022-10-17T04:58:50;14.10;99.90
65044;DHT22;51617;48.158;16.464;2022-10-17T05:01:16;14.20;99.90
65044;DHT22;51617;48.158;16.464;2022-10-17T05:03:42;14.20;99.90
65044;DHT22;51617;48.158;16.464;2022-10-17T05:06:12;14.20;99.90
65044;DHT22;51617;48.158;16.464;2022-10-17T05:08:38;14.20;99.90
65044;DHT22;51617;48.158;16.464;2022-10-17T05:11:03;14.20;99.90
65044;DHT22;51617;48.158;16.464;2022-10-17T05:13:30;14.20;99.90
65044;DHT22;51617;48.158;16.464;2022-10-17T05:15:59;14.20;99.90
65044;DHT22;51617;48.158;16.464;2022-10-17T05:18:25;14.20;99.90
65044;DHT22;51617;48.158;16.464;2022-10-17T05:20:51;14.20;99.90
65044;DHT22;51617;48.158;16.464;2022-10-17T05:23:16;14.30;99.90
65044;DHT22;51617;48.158;16.464;2022-10-17T05:25:42;14.20;99.90
65044;DHT22;51617;48.158;16.464;2022-10-17T05:28:07;14.20;99.90
65044;DHT22;51617;48.158;16.464;2022-10-17T05:30:33;14.30;99.90
65044;DHT22;51617;48.158;16.464;2022-10-17T05:32:59;14.20;99.90
65044;DHT22;51617;48.158;16.464;2022-10-17T05:35:24;14.30;99.90
65044;DHT22;51617;48.158;16.464;2022-10-17T05:37:50;14.40;99.90
65044;DHT22;51617;48.158;16.464;2022-10-17T05:40:15;14.40;99.90
65044;DHT22;51617;48.158;16.464;2022-10-17T05:42:45;14.30;99.60
65044;DHT22;51617;48.158;16.464;2022-10-17T05:45:10;14.40;99.70
65044;DHT22;51617;48.158;16.464;2022-10-17T05:47:36;14.40;99.90
65044;DHT22;51617;48.158;16.464;2022-10-17T05:50:01;14.40;99.60
65044;DHT22;51617;48.158;16.464;2022-10-17T05:52:27;14.40;99.60
65044;DHT22;51617;48.158;16.464;2022-10-17T05:54:53;14.50;99.70
65044;DHT22;51617;48.158;16.464;2022-10-17T05:57:18;14.50;99.60
65044;DHT22;51617;48.158;16.464;2022-10-17T05:59:44;14.50;99.00
65044;DHT22;51617;48.158;16.464;2022-10-17T06:02:11;14.50;99.10
65044;DHT22;51617;48.158;16.464;2022-10-17T06:04:36;14.50;99.40
65044;DHT22;51617;48.158;16.464;2022-10-17T06:07:02;14.50;99.40
65044;DHT22;51617;48.158;16.464;2022-10-17T06:09:27;14.50;99.50
65044;DHT22;51617;48.158;16.464;2022-10-17T06:11:53;14.50;99.00
65044;DHT22;51617;48.158;16.464;2022-10-17T06:14:18;14.50;98.90
65044;DHT22;51617;48.158;16.464;2022-10-17T06:16:44;14.40;99.10
65044;DHT22;51617;48.158;16.464;2022-10-17T06:19:09;14.60;99.30
65044;DHT22;51617;48.158;16.464;2022-10-17T06:21:35;14.70;99.20
65044;DHT22;51617;48.158;16.464;2022-10-17T06:24:03;14.60;99.00
65044;DHT22;51617;48.158;16.464;2022-10-17T06:26:28;14.70;99.00
65044;DHT22;51617;48.158;16.464;2022-10-17T06:28:54;14.70;98.90
65044;DHT22;51617;48.158;16.464;2022-10-17T06:31:19;14.80;99.00
65044;DHT22;51617;48.158;16.464;2022-10-17T06:33:45;14.80;99.10
65044;DHT22;51617;48.158;16.464;2022-10-17T06:36:11;14.80;99.00
65044;DHT22;51617;48.158;16.464;2022-10-17T06:38:37;14.90;98.80
65044;DHT22;51617;48.158;16.464;2022-10-17T06:41:03;14.90;98.50
65044;DHT22;51617;48.158;16.464;2022-10-17T06:43:32;15.00;98.60
65044;DHT22;51617;48.158;16.464;2022-10-17T06:45:58;15.00;98.70
65044;DHT22;51617;48.158;16.464;2022-10-17T06:48:23;15.10;98.60
65044;DHT22;51617;48.158;16.464;2022-10-17T06:50:49;15.10;98.60
65044;DHT22;51617;48.158;16.464;2022-10-17T06:53:14;15.10;98.40
65044;DHT22;51617;48.158;16.464;2022-10-17T06:55:40;15.20;98.50
65044;DHT22;51617;48.158;16.464;2022-10-17T06:58:07;15.30;98.40
65044;DHT22;51617;48.158;16.464;2022-10-17T07:00:32;15.30;98.00
65044;DHT22;51617;48.158;16.464;2022-10-17T07:02:58;15.30;98.00
65044;DHT22;51617;48.158;16.464;2022-10-17T07:05:23;15.40;97.90
65044;DHT22;51617;48.158;16.464;2022-10-17T07:07:49;15.50;98.00
65044;DHT22;51617;48.158;16.464;2022-10-17T07:10:14;15.40;97.70
65044;DHT22;51617;48.158;16.464;2022-10-17T07:12:40;15.60;98.10
65044;DHT22;51617;48.158;16.464;2022-10-17T07:15:06;15.70;97.70
65044;DHT22;51617;48.158;16.464;2022-10-17T07:17:31;15.70;97.50
65044;DHT22;51617;48.158;16.464;2022-10-17T07:19:57;15.80;97.70
65044;DHT22;51617;48.158;16.464;2022-10-17T07:22:22;15.80;97.70
65044;DHT22;51617;48.158;16.464;2022-10-17T07:24:48;15.90;97.60
65044;DHT22;51617;48.158;16.464;2022-10-17T07:27:13;15.90;97.30
65044;DHT22;51617;48.158;16.464;2022-10-17T07:29:39;16.00;97.20
65044;DHT22;51617;48.158;16.464;2022-10-17T07:32:04;16.10;97.40
65044;DHT22;51617;48.158;16.464;2022-10-17T07:34:33;16.10;97.30
65044;DHT22;51617;48.158;16.464;2022-10-17T07:36:59;16.20;97.20
65044;DHT22;51617;48.158;16.464;2022-10-17T07:39:24;16.30;97.30
65044;DHT22;51617;48.158;16.464;2022-10-17T07:41:50;16.30;97.00
65044;DHT22;51617;48.158;16.464;2022-10-17T07:44:15;16.40;96.90
65044;DHT22;51617;48.158;16.464;2022-10-17T07:46:41;16.50;96.90
65044;DHT22;51617;48.158;16.464;2022-10-17T07:49:07;16.60;97.10
65044;DHT22;51617;48.158;16.464;2022-10-17T07:51:32;16.60;97.10
65044;DHT22;51617;48.158;16.464;2022-10-17T07:53:58;16.70;96.90
65044;DHT22;51617;48.158;16.464;2022-10-17T07:56:23;16.80;96.80
65044;DHT22;51617;48.158;16.464;2022-10-17T07:58:50;16.90;96.90
65044;DHT22;51617;48.158;16.464;2022-10-17T08:01:15;17.00;96.90
65044;DHT22;51617;48.158;16.464;2022-10-17T08:03:45;17.10;96.80
65044;DHT22;51617;48.158;16.464;2022-10-17T08:06:11;17.20;96.60
65044;DHT22;51617;48.158;16.464;2022-10-17T08:08:37;17.20;96.70
65044;DHT22;51617;48.158;16.464;2022-10-17T08:11:06;17.30;96.40
65044;DHT22;51617;48.158;16.464;2022-10-17T08:13:32;17.40;96.20
65044;DHT22;51617;48.158;16.464;2022-10-17T08:15:58;17.50;96.40
65044;DHT22;51617;48.158;16.464;2022-10-17T08:18:24;17.50;96.40
65044;DHT22;51617;48.158;16.464;2022-10-17T08:20:49;17.50;96.20
65044;DHT22;51617;48.158;16.464;2022-10-17T08:23:15;17.60;96.30
65044;DHT22;51617;48.158;16.464;2022-10-17T08:25:40;17.60;96.10
65044;DHT22;51617;48.158;16.464;2022-10-17T08:28:06;17.70;96.10
65044;DHT22;51617;48.158;16.464;2022-10-17T08:30:31;17.80;95.80
65044;DHT22;51617;48.158;16.464;2022-10-17T08:32:57;17.90;96.00
65044;DHT22;51617;48.158;16.464;2022-10-17T08:35:22;18.00;96.00
65044;DHT22;51617;48.158;16.464;2022-10-17T08:37:48;18.10;95.90
65044;DHT22;51617;48.158;16.464;2022-10-17T08:40:21;18.10;95.60
65044;DHT22;51617;48.158;16.464;2022-10-17T08:47:53;18.30;95.40
65044;DHT22;51617;48.158;16.464;2022-10-17T08:57:53;18.70;95.10
65044;DHT22;51617;48.158;16.464;2022-10-17T09:00:19;18.80;94.80
65044;DHT22;51617;48.158;16.464;2022-10-17T09:02:51;18.80;95.00
65044;DHT22;51617;48.158;16.464;2022-10-17T09:08:08;19.00;94.70
65044;DHT22;51617;48.158;16.464;2022-10-17T09:13:16;19.10;94.40
65044;DHT22;51617;48.158;16.464;2022-10-17T09:18:26;19.30;94.50
65044;DHT22;51617;48.158;16.464;2022-10-17T09:20:53;19.40;94.30
65044;DHT22;51617;48.158;16.464;2022-10-17T09:23:32;19.40;94.00
65044;DHT22;51617;48.158;16.464;2022-10-17T09:26:00;19.60;94.00
65044;DHT22;51617;48.158;16.464;2022-10-17T09:28:33;19.80;93.90
65044;DHT22;51617;48.158;16.464;2022-10-17T09:31:00;19.80;93.70
65044;DHT22;51617;48.158;16.464;2022-10-17T09:33:35;19.80;93.30
65044;DHT22;51617;48.158;16.464;2022-10-17T09:36:03;19.90;93.40
65044;DHT22;51617;48.158;16.464;2022-10-17T09:38:33;20.10;93.10
65044;DHT22;51617;48.158;16.464;2022-10-17T09:41:01;20.10;93.30
65044;DHT22;51617;48.158;16.464;2022-10-17T09:43:27;20.20;93.10
65044;DHT22;51617;48.158;16.464;2022-10-17T09:46:07;20.20;93.20
65044;DHT22;51617;48.158;16.464;2022-10-17T09:48:36;20.40;92.90
65044;DHT22;51617;48.158;16.464;2022-10-17T09:51:02;20.50;92.80
65044;DHT22;51617;48.158;16.464;2022-10-17T09:53:32;20.60;92.30
65044;DHT22;51617;48.158;16.464;2022-10-17T09:56:00;20.80;92.40
65044;DHT22;51617;48.158;16.464;2022-10-17T09:58:39;20.80;92.30
65044;DHT22;51617;48.158;16.464;2022-10-17T10:01:15;20.90;92.00
65044;DHT22;51617;48.158;16.464;2022-10-17T10:03:41;21.00;92.00
65044;DHT22;51617;48.158;16.464;2022-10-17T10:06:19;21.10;91.40
65044;DHT22;51617;48.158;16.464;2022-10-17T10:08:49;21.20;91.50
65044;DHT22;51617;48.158;16.464;2022-10-17T10:11:15;21.30;91.20
65044;DHT22;51617;48.158;16.464;2022-10-17T10:13:42;21.20;91.00
65044;DHT22;51617;48.158;16.464;2022-10-17T10:16:15;21.50;90.70
65044;DHT22;51617;48.158;16.464;2022-10-17T10:18:41;21.50;90.80
65044;DHT22;51617;48.158;16.464;2022-10-17T10:23:39;21.50;90.50
65044;DHT22;51617;48.158;16.464;2022-10-17T10:26:13;21.80;90.50
65044;DHT22;51617;48.158;16.464;2022-10-17T10:28:39;21.80;90.20
65044;DHT22;51617;48.158;16.464;2022-10-17T10:31:06;21.90;90.20
65044;DHT22;51617;48.158;16.464;2022-10-17T10:33:33;22.00;89.80
65044;DHT22;51617;48.158;16.464;2022-10-17T10:36:00;22.10;90.00
65044;DHT22;51617;48.158;16.464;2022-10-17T10:38:27;22.10;89.70
65044;DHT22;51617;48.158;16.464;2022-10-17T10:40:54;22.20;89.10
65044;DHT22;51617;48.158;16.464;2022-10-17T10:43:21;22.20;88.90
65044;DHT22;51617;48.158;16.464;2022-10-17T10:45:48;22.10;88.20
65044;DHT22;51617;48.158;16.464;2022-10-17T10:50:46;22.40;88.20
65044;DHT22;51617;48.158;16.464;2022-10-17T10:55:43;22.40;86.90
65044;DHT22;51617;48.158;16.464;2022-10-17T10:58:26;22.40;87.30
65044;DHT22;51617;48.158;16.464;2022-10-17T11:00:55;22.50;87.00
65044;DHT22;51617;48.158;16.464;2022-10-17T11:04:18;22.50;86.40
65044;DHT22;51617;48.158;16.464;2022-10-17T11:06:12;22.50;86.20
65044;DHT22;51617;48.158;16.464;2022-10-17T11:08:48;22.70;86.60
65044;DHT22;51617;48.158;16.464;2022-10-17T11:11:26;22.70;85.90
65044;DHT22;51617;48.158;16.464;2022-10-17T11:18:46;22.80;85.70
65044;DHT22;51617;48.158;16.464;2022-10-17T11:24:11;22.90;85.30
65044;DHT22;51617;48.158;16.464;2022-10-17T11:27:00;22.90;84.20
65044;DHT22;51617;48.158;16.464;2022-10-17T11:29:27;23.00;84.20
65044;DHT22;51617;48.158;16.464;2022-10-17T11:31:53;23.10;84.50
65044;DHT22;51617;48.158;16.464;2022-10-17T11:34:28;23.10;84.00
65044;DHT22;51617;48.158;16.464;2022-10-17T11:36:57;23.20;84.00
65044;DHT22;51617;48.158;16.464;2022-10-17T11:39:57;23.20;83.70
65044;DHT22;51617;48.158;16.464;2022-10-17T11:42:59;23.20;83.40
65044;DHT22;51617;48.158;16.464;2022-10-17T11:45:07;23.30;82.40
65044;DHT22;51617;48.158;16.464;2022-10-17T11:47:43;23.40;82.90
65044;DHT22;51617;48.158;16.464;2022-10-17T11:52:41;23.30;82.10
65044;DHT22;51617;48.158;16.464;2022-10-17T12:05:27;23.70;81.20
65044;DHT22;51617;48.158;16.464;2022-10-17T12:15:55;23.90;80.80
65044;DHT22;51617;48.158;16.464;2022-10-17T12:18:24;23.80;80.00
65044;DHT22;51617;48.158;16.464;2022-10-17T12:20:55;23.90;79.70
65044;DHT22;51617;48.158;16.464;2022-10-17T12:23:30;23.90;78.70
65044;DHT22;51617;48.158;16.464;2022-10-17T12:26:00;23.90;79.70
65044;DHT22;51617;48.158;16.464;2022-10-17T12:28:32;23.90;79.50
65044;DHT22;51617;48.158;16.464;2022-10-17T12:31:05;24.00;79.20
65044;DHT22;51617;48.158;16.464;2022-10-17T12:33:37;24.10;79.00
65044;DHT22;51617;48.158;16.464;2022-10-17T12:46:45;24.20;78.10
65044;DHT22;51617;48.158;16.464;2022-10-17T12:52:05;24.30;77.50
65044;DHT22;51617;48.158;16.464;2022-10-17T12:54:43;24.20;77.60
65044;DHT22;51617;48.158;16.464;2022-10-17T12:57:23;24.30;76.50
65044;DHT22;51617;48.158;16.464;2022-10-17T12:59:51;24.30;76.80
65044;DHT22;51617;48.158;16.464;2022-10-17T13:02:19;24.30;76.20
65044;DHT22;51617;48.158;16.464;2022-10-17T13:04:45;24.40;76.40
65044;DHT22;51617;48.158;16.464;2022-10-17T13:07:18;24.40;76.50
65044;DHT22;51617;48.158;16.464;2022-10-17T13:09:45;24.40;75.90
65044;DHT22;51617;48.158;16.464;2022-10-17T13:12:12;24.50;75.80
65044;DHT22;51617;48.158;16.464;2022-10-17T13:14:39;24.50;75.90
65044;DHT22;51617;48.158;16.464;2022-10-17T13:17:06;24.50;75.40
65044;DHT22;51617;48.158;16.464;2022-10-17T13:19:43;24.60;75.50
65044;DHT22;51617;48.158;16.464;2022-10-17T13:22:10;24.70;74.70
65044;DHT22;51617;48.158;16.464;2022-10-17T13:24:38;24.70;75.30
65044;DHT22;51617;48.158;16.464;2022-10-17T13:27:04;24.70;74.40
65044;DHT22;51617;48.158;16.464;2022-10-17T13:29:30;24.70;74.80
65044;DHT22;51617;48.158;16.464;2022-10-17T13:32:01;24.60;74.30
65044;DHT22;51617;48.158;16.464;2022-10-17T13:34:29;24.70;74.80
65044;DHT22;51617;48.158;16.464;2022-10-17T13:36:55;24.70;74.40
65044;DHT22;51617;48.158;16.464;2022-10-17T13:39:22;24.70;74.50
65044;DHT22;51617;48.158;16.464;2022-10-17T13:41:48;24.70;75.00
65044;DHT22;51617;48.158;16.464;2022-10-17T13:44:18;24.70;74.00
65044;DHT22;51617;48.158;16.464;2022-10-17T13:46:44;24.60;73.50
65044;DHT22;51617;48.158;16.464;2022-10-17T13:51:46;24.60;74.10
65044;DHT22;51617;48.158;16.464;2022-10-17T13:56:44;24.70;73.70
65044;DHT22;51617;48.158;16.464;2022-10-17T13:59:21;24.60;73.50
65044;DHT22;51617;48.158;16.464;2022-10-17T14:01:47;24.60;73.00
65044;DHT22;51617;48.158;16.464;2022-10-17T14:04:14;24.60;72.00
65044;DHT22;51617;48.158;16.464;2022-10-17T14:06:43;24.60;71.80
65044;DHT22;51617;48.158;16.464;2022-10-17T14:09:22;24.60;72.10
65044;DHT22;51617;48.158;16.464;2022-10-17T14:14:47;24.60;71.50
65044;DHT22;51617;48.158;16.464;2022-10-17T14:17:14;24.50;70.90
65044;DHT22;51617;48.158;16.464;2022-10-17T14:19:49;24.50;71.40
65044;DHT22;51617;48.158;16.464;2022-10-17T14:22:26;24.50;70.20
65044;DHT22;51617;48.158;16.464;2022-10-17T14:24:52;24.50;69.40
65044;DHT22;51617;48.158;16.464;2022-10-17T14:27:28;24.40;69.90
65044;DHT22;51617;48.158;16.464;2022-10-17T14:29:55;24.40;70.00
65044;DHT22;51617;48.158;16.464;2022-10-17T14:32:25;24.50;69.90
65044;DHT22;51617;48.158;16.464;2022-10-17T14:34:53;24.50;70.30
65044;DHT22;51617;48.158;16.464;2022-10-17T14:40:03;24.40;69.50
65044;DHT22;51617;48.158;16.464;2022-10-17T14:42:30;24.40;69.60
65044;DHT22;51617;48.158;16.464;2022-10-17T14:44:57;24.30;69.70
65044;DHT22;51617;48.158;16.464;2022-10-17T14:47:27;24.20;69.60
65044;DHT22;51617;48.158;16.464;2022-10-17T14:55:35;24.20;69.00
65044;DHT22;51617;48.158;16.464;2022-10-17T14:58:00;24.20;69.00
65044;DHT22;51617;48.158;16.464;2022-10-17T15:00:26;24.10;68.60
65044;DHT22;51617;48.158;16.464;2022-10-17T15:02:53;24.10;68.90
65044;DHT22;51617;48.158;16.464;2022-10-17T15:05:19;24.00;69.00
65044;DHT22;51617;48.158;16.464;2022-10-17T15:07:47;23.90;69.10
65044;DHT22;51617;48.158;16.464;2022-10-17T15:13:08;23.80;69.10
65044;DHT22;51617;48.158;16.464;2022-10-17T15:15:34;23.70;68.80
65044;DHT22;51617;48.158;16.464;2022-10-17T15:18:00;23.60;69.60
65044;DHT22;51617;48.158;16.464;2022-10-17T15:20:26;23.50;69.20
65044;DHT22;51617;48.158;16.464;2022-10-17T15:22:55;23.40;69.00
65044;DHT22;51617;48.158;16.464;2022-10-17T15:25:21;23.40;69.30
65044;DHT22;51617;48.158;16.464;2022-10-17T15:27:47;23.30;70.00
65044;DHT22;51617;48.158;16.464;2022-10-17T15:32:41;23.00;70.20
65044;DHT22;51617;48.158;16.464;2022-10-17T15:35:07;23.00;70.40
65044;DHT22;51617;48.158;16.464;2022-10-17T15:37:32;22.80;70.30
65044;DHT22;51617;48.158;16.464;2022-10-17T15:39:58;22.70;70.90
65044;DHT22;51617;48.158;16.464;2022-10-17T15:42:27;22.70;70.80
65044;DHT22;51617;48.158;16.464;2022-10-17T15:44:53;22.60;70.80
65044;DHT22;51617;48.158;16.464;2022-10-17T15:47:30;22.50;70.30
65044;DHT22;51617;48.158;16.464;2022-10-17T15:49:57;22.50;70.80
65044;DHT22;51617;48.158;16.464;2022-10-17T15:52:23;22.40;70.70
65044;DHT22;51617;48.158;16.464;2022-10-17T15:54:49;22.20;70.20
65044;DHT22;51617;48.158;16.464;2022-10-17T15:57:16;22.20;70.80
65044;DHT22;51617;48.158;16.464;2022-10-17T15:59:42;22.10;70.80
65044;DHT22;51617;48.158;16.464;2022-10-17T16:02:14;21.90;70.60
65044;DHT22;51617;48.158;16.464;2022-10-17T16:04:40;21.80;71.10
65044;DHT22;51617;48.158;16.464;2022-10-17T16:07:05;21.60;70.70
65044;DHT22;51617;48.158;16.464;2022-10-17T16:09:32;21.60;70.70
65044;DHT22;51617;48.158;16.464;2022-10-17T16:11:58;21.50;71.00
65044;DHT22;51617;48.158;16.464;2022-10-17T16:14:24;21.40;71.70
65044;DHT22;51617;48.158;16.464;2022-10-17T16:16:50;21.40;72.20
65044;DHT22;51617;48.158;16.464;2022-10-17T16:19:15;21.30;71.80
65044;DHT22;51617;48.158;16.464;2022-10-17T16:21:41;21.20;72.50
65044;DHT22;51617;48.158;16.464;2022-10-17T16:24:10;21.20;72.80
65044;DHT22;51617;48.158;16.464;2022-10-17T16:26:37;21.10;73.10
65044;DHT22;51617;48.158;16.464;2022-10-17T16:29:03;21.00;73.50
65044;DHT22;51617;48.158;16.464;2022-10-17T16:31:29;20.90;74.00
65044;DHT22;51617;48.158;16.464;2022-10-17T16:33:59;20.80;74.40
65044;DHT22;51617;48.158;16.464;2022-10-17T16:36:25;20.80;74.20
65044;DHT22;51617;48.158;16.464;2022-10-17T16:38:50;20.70;74.90
65044;DHT22;51617;48.158;16.464;2022-10-17T16:43:44;20.60;74.80
65044;DHT22;51617;48.158;16.464;2022-10-17T16:46:10;20.50;75.50
65044;DHT22;51617;48.158;16.464;2022-10-17T16:48:35;20.40;75.20
65044;DHT22;51617;48.158;16.464;2022-10-17T16:51:01;20.30;75.80
65044;DHT22;51617;48.158;16.464;2022-10-17T16:53:26;20.20;75.30
65044;DHT22;51617;48.158;16.464;2022-10-17T16:56:02;20.30;75.90
65044;DHT22;51617;48.158;16.464;2022-10-17T16:58:27;20.30;75.50
65044;DHT22;51617;48.158;16.464;2022-10-17T17:00:55;20.10;75.50
65044;DHT22;51617;48.158;16.464;2022-10-17T17:03:24;20.00;75.60
65044;DHT22;51617;48.158;16.464;2022-10-17T17:05:49;20.10;76.30
65044;DHT22;51617;48.158;16.464;2022-10-17T17:08:16;20.00;76.40
65044;DHT22;51617;48.158;16.464;2022-10-17T17:10:45;19.90;75.90
65044;DHT22;51617;48.158;16.464;2022-10-17T17:13:11;20.00;76.50
65044;DHT22;51617;48.158;16.464;2022-10-17T17:15:37;19.90;76.40
65044;DHT22;51617;48.158;16.464;2022-10-17T17:18:03;19.90;76.60
65044;DHT22;51617;48.158;16.464;2022-10-17T17:20:29;19.90;76.80
65044;DHT22;51617;48.158;16.464;2022-10-17T17:22:54;19.80;76.40
65044;DHT22;51617;48.158;16.464;2022-10-17T17:25:21;19.80;77.00
65044;DHT22;51617;48.158;16.464;2022-10-17T17:27:46;19.70;76.60
65044;DHT22;51617;48.158;16.464;2022-10-17T17:30:12;19.70;77.40
65044;DHT22;51617;48.158;16.464;2022-10-17T17:32:38;19.60;76.70